LYTV/TIV METAR and TAF weather

Enter ICAO airport designator
Station Type Date Time Source
LYTV METAR 2019/06/16 12:30 UTC NOAA

LYTV 161230Z 27004KT 170V340 9999 FEW060 33/18 Q1010 NOSIG


Station Type Date Time Source
LYTV Decoded METAR 2019/06/16 12:30 UTC NOAA

Tivat, Serbia and Montenegro (LYTV) 42-24N 018-44E 5M
Jun 16, 2019 - 08:30 AM EDT / 2019.06.16 1230 UTC
Wind: from the W (270 degrees) at 5 MPH (4 KT) (direction variable):0
Visibility: greater than 7 mile(s):0
Sky conditions: mostly clear
Temperature: 91 F (33 C)
Dew Point: 64 F (18 C)
Relative Humidity: 41%
Pressure (altimeter): 29.83 in. Hg (1010 hPa)
ob: LYTV 161230Z 27004KT 170V340 9999 FEW060 33/18 Q1010 NOSIG
cycle: 12

Station Type Date Time Source
LYTV TAF 2019/06/16 12:21 UTC NOAA

TAF LYTV 161100Z 1612/1712 32008KT 9999 FEW050 TX33/1613Z TN18/1703Z PROB30
TEMPO 1612/1618 VRB15G25KT TSRA FEW030CB SCT040

Example: see airport list